Time;durP1;ratioP1;P1;durP2;ratioP2;P2;SDS_P1;SDS_P2;PMS_P1;PMS_P2;Temp;Humidity;BMP_temperature;BMP_pressure;BME280_temperature;BME280_humidity;BME280_pressure;Samples;Min_cycle;Max_cycle;Signal;HPM_P1;HPM_P2
2022/06/29 00:00:38;;;;;;;0.88;0.43;;;20.70;62.10;;;;;;6214999;23;19997;-70
2022/06/29 00:03:04;;;;;;;1.55;0.40;;;20.70;62.30;;;;;;6214623;23;20005;-70
2022/06/29 00:05:30;;;;;;;0.60;0.30;;;20.70;62.30;;;;;;6188212;23;20349;-70
2022/06/29 00:07:56;;;;;;;3.22;0.50;;;20.70;62.30;;;;;;6188234;23;20441;-70
2022/06/29 00:10:22;;;;;;;0.45;0.35;;;20.70;62.40;;;;;;6214465;23;20000;-70
2022/06/29 00:12:47;;;;;;;0.63;0.40;;;20.70;62.50;;;;;;6188290;23;20344;-70
2022/06/29 00:15:13;;;;;;;0.68;0.40;;;20.70;62.50;;;;;;6188180;23;20107;-70
2022/06/29 00:17:39;;;;;;;0.65;0.45;;;20.80;63.70;;;;;;6188221;23;20312;-70
2022/06/29 00:20:06;;;;;;;0.65;0.40;;;20.70;62.60;;;;;;6214737;23;20035;-70
2022/06/29 00:22:31;;;;;;;0.98;0.47;;;20.70;62.60;;;;;;6188008;23;20009;-70
2022/06/29 00:24:57;;;;;;;2.15;0.22;;;20.70;62.50;;;;;;6214224;23;20384;-70
2022/06/29 00:27:23;;;;;;;0.75;0.17;;;20.70;62.60;;;;;;6188418;23;20341;-71
2022/06/29 00:29:49;;;;;;;0.70;0.40;;;20.70;62.70;;;;;;6163447;23;20035;-70
2022/06/29 00:32:15;;;;;;;2.05;0.30;;;20.70;62.70;;;;;;6214405;23;20001;-70
2022/06/29 00:34:40;;;;;;;1.33;0.40;;;20.80;62.80;;;;;;6188217;23;20009;-70
2022/06/29 00:37:06;;;;;;;0.80;0.35;;;20.80;62.80;;;;;;6187583;23;20067;-70
2022/06/29 00:39:32;;;;;;;0.38;0.30;;;20.70;62.90;;;;;;6214460;23;20337;-70
2022/06/29 00:41:58;;;;;;;1.20;0.43;;;20.70;62.90;;;;;;6188062;23;20441;-70
2022/06/29 00:44:23;;;;;;;0.70;0.40;;;20.70;62.90;;;;;;6188152;23;20008;-70
2022/06/29 00:46:57;;;;;;;0.40;0.40;;;20.70;62.90;;;;;;6214460;23;20005;-70
2022/06/29 00:49:24;;;;;;;0.75;0.40;;;20.70;62.90;;;;;;6163448;23;20076;-70
2022/06/29 00:52:12;;;;;;;1.27;0.20;;;20.70;63.00;;;;;;6163277;23;20027;-70
2022/06/29 00:54:46;;;;;;;0.40;0.30;;;20.70;63.00;;;;;;6187727;23;20496;-70
2022/06/29 00:57:19;;;;;;;1.38;0.30;;;20.70;62.90;;;;;;6187788;23;20001;-70
2022/06/29 00:59:47;;;;;;;1.42;0.45;;;20.70;63.00;;;;;;6187915;23;20378;-70
2022/06/29 01:02:14;;;;;;;0.68;0.50;;;20.70;63.00;;;;;;6163361;23;20007;-70
2022/06/29 01:04:40;;;;;;;0.75;0.30;;;20.70;63.00;;;;;;6188247;23;20001;-70
2022/06/29 01:07:05;;;;;;;0.93;0.30;;;20.70;63.10;;;;;;6213997;23;20020;-70
2022/06/29 01:09:31;;;;;;;2.40;0.40;;;20.70;63.10;;;;;;6188018;23;20003;-70
2022/06/29 01:11:58;;;;;;;3.35;0.52;;;20.70;63.20;;;;;;6187870;23;20032;-70
2022/06/29 01:14:23;;;;;;;2.28;0.30;;;20.70;63.20;;;;;;6214210;23;20047;-70
2022/06/29 01:16:49;;;;;;;1.27;0.20;;;20.70;63.20;;;;;;6216351;23;19997;-70
2022/06/29 01:19:15;;;;;;;0.38;0.38;;;20.70;63.20;;;;;;6216116;23;20031;-70
2022/06/29 01:21:41;;;;;;;0.40;0.30;;;20.70;63.20;;;;;;6216092;23;19997;-70
2022/06/29 01:24:06;;;;;;;0.63;0.50;;;20.70;63.20;;;;;;6189983;23;20002;-70
2022/06/29 01:26:32;;;;;;;0.68;0.40;;;20.70;63.20;;;;;;6216174;23;20004;-70
2022/06/29 01:28:57;;;;;;;0.73;0.40;;;20.70;63.30;;;;;;6216069;23;20102;-70
2022/06/29 01:31:23;;;;;;;0.60;0.40;;;20.70;63.20;;;;;;6189960;23;20004;-70
2022/06/29 01:33:49;;;;;;;1.48;0.30;;;20.70;63.20;;;;;;6189847;23;20001;-70
2022/06/29 01:36:15;;;;;;;0.65;0.30;;;20.70;63.20;;;;;;6215548;23;20001;-70
2022/06/29 01:38:41;;;;;;;0.68;0.25;;;20.70;63.20;;;;;;6165263;23;20015;-70
2022/06/29 01:41:08;;;;;;;1.55;0.60;;;20.70;63.20;;;;;;6189614;23;20000;-70
2022/06/29 01:43:34;;;;;;;0.90;0.40;;;20.70;63.30;;;;;;6190067;23;20080;-70
2022/06/29 01:46:01;;;;;;;0.30;0.30;;;20.70;63.40;;;;;;6216205;23;20001;-70
2022/06/29 01:48:26;;;;;;;0.80;0.40;;;20.70;63.30;;;;;;6189441;23;20000;-70
2022/06/29 01:50:52;;;;;;;0.45;0.30;;;20.70;63.20;;;;;;6164768;23;20349;-70
2022/06/29 01:53:18;;;;;;;0.80;0.28;;;20.70;63.30;;;;;;6216700;23;20444;-70
2022/06/29 01:55:44;;;;;;;0.40;0.40;;;20.70;63.30;;;;;;6164827;23;20456;-70
2022/06/29 01:58:10;;;;;;;1.10;0.68;;;20.70;63.50;;;;;;6189401;23;20388;-70
2022/06/29 02:00:36;;;;;;;0.70;0.43;;;20.70;63.50;;;;;;6189738;23;20486;-70
2022/06/29 02:03:01;;;;;;;2.03;0.40;;;20.70;63.50;;;;;;6215930;23;19996;-70
2022/06/29 02:05:27;;;;;;;0.47;0.20;;;20.70;63.50;;;;;;6164419;23;19997;-70
2022/06/29 02:07:53;;;;;;;1.13;0.35;;;20.70;63.50;;;;;;6215863;23;20473;-70
2022/06/29 02:10:18;;;;;;;0.50;0.30;;;20.70;63.50;;;;;;6215807;23;20012;-70
2022/06/29 02:12:44;;;;;;;0.60;0.40;;;20.70;63.50;;;;;;6215851;23;20000;-70
2022/06/29 02:15:10;;;;;;;1.90;0.50;;;20.60;63.50;;;;;;6215652;23;20007;-70
2022/06/29 02:17:36;;;;;;;1.38;0.32;;;20.60;63.50;;;;;;6216096;23;20005;-70
2022/06/29 02:20:01;;;;;;;1.15;0.45;;;20.70;63.60;;;;;;6215457;23;20007;-70
2022/06/29 02:22:27;;;;;;;0.88;0.30;;;20.60;63.70;;;;;;6216166;23;20022;-70
2022/06/29 02:24:53;;;;;;;0.30;0.30;;;20.70;63.70;;;;;;6215625;23;20397;-70
2022/06/29 02:27:18;;;;;;;4.00;0.40;;;20.60;63.70;;;;;;6215053;23;20008;-70
2022/06/29 02:29:44;;;;;;;0.50;0.40;;;20.60;63.60;;;;;;6215695;23;20012;-70
2022/06/29 02:34:54;;;;;;;0.70;0.38;;;20.70;63.70;;;;;;6192660;23;20015;-70
2022/06/29 02:37:19;;;;;;;1.13;0.50;;;20.60;63.70;;;;;;6215312;23;20016;-70
2022/06/29 02:39:45;;;;;;;0.70;0.60;;;20.60;63.70;;;;;;6215468;23;20499;-70
2022/06/29 02:42:11;;;;;;;0.68;0.40;;;20.60;63.70;;;;;;6215560;23;20001;-70
2022/06/29 02:44:37;;;;;;;2.92;0.40;;;20.60;63.80;;;;;;6215590;23;20007;-70
2022/06/29 02:47:04;;;;;;;0.55;0.38;;;20.60;63.70;;;;;;6215332;23;20364;-70
2022/06/29 02:49:30;;;;;;;0.68;0.20;;;20.60;63.70;;;;;;6189139;23;20091;-70
2022/06/29 02:51:55;;;;;;;1.77;0.30;;;20.60;63.80;;;;;;6215444;23;20453;-70
2022/06/29 02:54:21;;;;;;;0.75;0.40;;;20.60;63.80;;;;;;6215130;23;20028;-70
2022/06/29 02:56:47;;;;;;;0.38;0.30;;;20.60;63.70;;;;;;6189195;23;20071;-70
2022/06/29 02:59:12;;;;;;;0.50;0.40;;;20.60;63.80;;;;;;6215154;23;20004;-70
2022/06/29 03:01:38;;;;;;;1.48;0.50;;;20.60;63.80;;;;;;6215262;23;20000;-70
2022/06/29 03:04:04;;;;;;;0.20;0.20;;;20.60;63.80;;;;;;6215128;23;20492;-70
2022/06/29 03:06:29;;;;;;;0.82;0.50;;;20.60;63.80;;;;;;6188931;23;20000;-70
2022/06/29 03:08:55;;;;;;;1.23;0.25;;;20.60;63.80;;;;;;6188803;23;20007;-70
2022/06/29 03:11:21;;;;;;;0.93;0.40;;;20.60;63.90;;;;;;6215313;23;20433;-70
2022/06/29 03:13:46;;;;;;;0.43;0.40;;;20.60;63.90;;;;;;6188844;23;20005;-70
2022/06/29 03:16:12;;;;;;;0.40;0.22;;;20.60;64.00;;;;;;6215240;23;20012;-70
2022/06/29 03:18:37;;;;;;;0.30;0.30;;;20.60;64.00;;;;;;6214865;23;20441;-70
2022/06/29 03:21:03;;;;;;;0.77;0.43;;;20.60;64.00;;;;;;6215133;23;20003;-70
2022/06/29 03:23:29;;;;;;;0.73;0.40;;;20.60;64.00;;;;;;6215270;23;20047;-70
2022/06/29 03:25:54;;;;;;;2.45;0.32;;;20.50;63.90;;;;;;6188731;23;20390;-70
2022/06/29 03:28:20;;;;;;;1.42;0.50;;;20.60;64.00;;;;;;6215152;23;20079;-69
2022/06/29 03:30:45;;;;;;;1.92;0.50;;;20.60;64.00;;;;;;6215080;23;20071;-70
2022/06/29 03:33:11;;;;;;;0.38;0.30;;;20.60;64.10;;;;;;6214704;23;20009;-70
2022/06/29 03:35:37;;;;;;;0.60;0.40;;;20.60;64.10;;;;;;6188774;23;20004;-70
2022/06/29 03:38:03;;;;;;;1.13;0.50;;;20.60;64.10;;;;;;6214767;23;20059;-70
2022/06/29 03:40:28;;;;;;;0.65;0.30;;;20.50;64.10;;;;;;6214921;23;20429;-70
2022/06/29 03:42:55;;;;;;;0.60;0.40;;;20.50;64.10;;;;;;6188527;23;20075;-70
2022/06/29 03:45:22;;;;;;;0.50;0.30;;;20.50;64.10;;;;;;6215069;23;20004;-70
2022/06/29 03:47:48;;;;;;;0.35;0.30;;;20.50;64.20;;;;;;6188541;23;20445;-70
2022/06/29 03:50:14;;;;;;;0.95;0.38;;;20.50;64.10;;;;;;6214757;23;20011;-70
2022/06/29 03:52:40;;;;;;;0.75;0.40;;;20.50;64.20;;;;;;6214942;23;20004;-70
2022/06/29 03:55:06;;;;;;;0.40;0.35;;;20.50;65.20;;;;;;6214823;23;20027;-70
2022/06/29 03:57:32;;;;;;;1.35;0.50;;;20.50;64.20;;;;;;6188305;23;20005;-70
2022/06/29 03:59:58;;;;;;;0.77;0.40;;;20.50;64.20;;;;;;6163545;23;19997;-70
2022/06/29 04:02:25;;;;;;;0.52;0.40;;;20.50;64.20;;;;;;6187878;23;19997;-70
2022/06/29 04:04:51;;;;;;;1.67;0.40;;;20.50;64.20;;;;;;6188817;23;20019;-70
2022/06/29 04:07:16;;;;;;;0.60;0.38;;;20.50;64.30;;;;;;6188023;23;20004;-70
2022/06/29 04:09:42;;;;;;;1.33;0.32;;;20.50;64.30;;;;;;6214788;23;20067;-70
2022/06/29 04:12:08;;;;;;;0.50;0.30;;;20.50;64.30;;;;;;6214858;23;20031;-70
2022/06/29 04:14:33;;;;;;;0.73;0.30;;;20.50;64.30;;;;;;6188175;23;19997;-70
2022/06/29 04:16:59;;;;;;;0.82;0.40;;;20.50;64.30;;;;;;6214503;23;20008;-70
2022/06/29 04:19:25;;;;;;;0.35;0.25;;;20.50;64.30;;;;;;6214448;23;20011;-70
2022/06/29 04:21:50;;;;;;;0.57;0.45;;;20.50;64.40;;;;;;6214742;23;20005;-70
2022/06/29 04:24:16;;;;;;;0.80;0.30;;;20.50;64.50;;;;;;6214476;23;19997;-70
2022/06/29 04:26:42;;;;;;;0.75;0.20;;;20.50;64.40;;;;;;6163796;23;20385;-70
2022/06/29 04:29:08;;;;;;;0.30;0.20;;;20.50;64.40;;;;;;6214508;23;20032;-70
2022/06/29 04:31:34;;;;;;;0.55;0.30;;;20.50;64.50;;;;;;6214288;23;20000;-70
2022/06/29 04:34:00;;;;;;;0.43;0.25;;;20.50;64.40;;;;;;6187390;23;20011;-70
2022/06/29 04:36:26;;;;;;;0.40;0.30;;;20.40;64.40;;;;;;6161697;23;20017;-69
2022/06/29 04:38:52;;;;;;;1.75;0.30;;;20.50;64.50;;;;;;6213585;23;20017;-70
2022/06/29 04:41:19;;;;;;;1.80;0.50;;;20.50;64.50;;;;;;6213448;23;20122;-70
2022/06/29 04:43:46;;;;;;;1.80;0.50;;;20.50;64.60;;;;;;6213423;23;20000;-70
2022/06/29 04:46:21;;;;;;;1.08;0.45;;;20.50;64.60;;;;;;6213385;23;20000;-70
2022/06/29 04:48:59;;;;;;;0.60;0.38;;;20.40;64.60;;;;;;6186037;23;20718;-69
2022/06/29 04:51:26;;;;;;;0.50;0.50;;;20.50;64.30;;;;;;6189933;23;20068;-70
2022/06/29 04:53:56;;;;;;;2.15;0.50;;;20.40;63.60;;;;;;6190574;23;20016;-69
2022/06/29 04:56:23;;;;;;;0.80;0.45;;;20.50;63.60;;;;;;6191473;23;20104;-70
2022/06/29 04:58:51;;;;;;;1.00;0.55;;;20.40;63.60;;;;;;6165752;23;20028;-70
2022/06/29 05:01:18;;;;;;;1.48;0.57;;;20.40;63.50;;;;;;6190713;23;20445;-70
2022/06/29 05:03:43;;;;;;;1.45;0.60;;;20.40;63.60;;;;;;6191138;23;19996;-71
2022/06/29 05:06:09;;;;;;;1.13;0.60;;;20.40;63.60;;;;;;6216355;23;20008;-71
2022/06/29 05:08:35;;;;;;;1.75;0.30;;;20.40;63.50;;;;;;6189711;23;20008;-70
2022/06/29 05:11:00;;;;;;;0.77;0.47;;;20.40;63.40;;;;;;6215891;23;20000;-70
2022/06/29 05:13:26;;;;;;;1.08;0.40;;;20.40;63.40;;;;;;6189831;23;20399;-70
2022/06/29 05:15:52;;;;;;;1.27;0.70;;;20.40;63.40;;;;;;6190130;23;20352;-70
2022/06/29 05:18:17;;;;;;;1.08;0.30;;;20.40;63.20;;;;;;6190142;23;20072;-71
2022/06/29 05:20:43;;;;;;;1.60;0.60;;;20.40;63.10;;;;;;6190430;23;19996;-71
2022/06/29 05:23:10;;;;;;;1.20;0.40;;;20.30;63.10;;;;;;6216962;23;20413;-70
2022/06/29 05:25:35;;;;;;;1.23;0.50;;;20.40;63.10;;;;;;6190640;23;20023;-71
2022/06/29 05:28:01;;;;;;;0.85;0.55;;;20.30;63.00;;;;;;6190345;23;20299;-70
2022/06/29 05:30:27;;;;;;;0.45;0.30;;;20.30;63.00;;;;;;6190095;23;20000;-70
2022/06/29 05:32:52;;;;;;;0.73;0.40;;;20.30;63.00;;;;;;6216750;23;20396;-70
2022/06/29 05:35:18;;;;;;;1.10;0.40;;;20.30;63.00;;;;;;6165202;23;20433;-70
2022/06/29 05:37:44;;;;;;;0.73;0.40;;;20.30;62.90;;;;;;6216518;23;20031;-69
2022/06/29 05:40:09;;;;;;;2.30;0.50;;;20.30;62.90;;;;;;6216895;23;20003;-69
2022/06/29 05:42:35;;;;;;;0.43;0.40;;;20.30;62.90;;;;;;6189972;23;20078;-69
2022/06/29 05:45:01;;;;;;;1.23;0.63;;;20.30;62.90;;;;;;6216366;23;20477;-69
2022/06/29 05:47:27;;;;;;;1.30;0.52;;;20.30;63.00;;;;;;6165236;23;20067;-71
2022/06/29 05:49:52;;;;;;;1.20;0.70;;;20.30;62.90;;;;;;6216726;23;20005;-70
2022/06/29 05:52:19;;;;;;;1.05;0.63;;;20.30;63.00;;;;;;6216566;23;20076;-70
2022/06/29 05:54:45;;;;;;;0.85;0.60;;;20.30;62.90;;;;;;6216659;23;20008;-70
2022/06/29 05:57:11;;;;;;;0.40;0.30;;;20.30;62.90;;;;;;6216261;23;20076;-70
2022/06/29 05:59:37;;;;;;;0.95;0.50;;;20.20;62.90;;;;;;6216599;23;21220;-70
2022/06/29 06:02:03;;;;;;;0.93;0.40;;;20.30;62.90;;;;;;6216230;23;20001;-70
2022/06/29 06:04:28;;;;;;;0.45;0.40;;;20.20;62.80;;;;;;6216620;23;20107;-70
2022/06/29 06:06:54;;;;;;;0.82;0.52;;;20.20;62.90;;;;;;6216657;23;20004;-70
2022/06/29 06:09:25;;;;;;;0.47;0.30;;;20.20;62.90;;;;;;6216425;23;20103;-70
2022/06/29 06:11:51;;;;;;;0.80;0.50;;;20.20;62.80;;;;;;6216314;23;20027;-70
2022/06/29 06:14:16;;;;;;;1.90;0.77;;;20.30;62.90;;;;;;6216568;23;20001;-70
2022/06/29 06:16:42;;;;;;;2.67;0.60;;;20.30;62.90;;;;;;6189778;23;20001;-70
2022/06/29 06:19:08;;;;;;;0.75;0.40;;;20.20;62.80;;;;;;6215673;23;20001;-70
2022/06/29 06:21:35;;;;;;;1.45;0.60;;;20.20;62.80;;;;;;6164934;23;20000;-70
2022/06/29 06:24:00;;;;;;;1.98;0.80;;;20.20;63.20;;;;;;6215584;23;20001;-69
2022/06/29 06:26:26;;;;;;;2.65;0.70;;;20.20;63.40;;;;;;6215443;23;20032;-70
2022/06/29 06:28:52;;;;;;;0.90;0.60;;;20.20;63.70;;;;;;6215323;23;20011;-71
2022/06/29 06:31:17;;;;;;;1.00;0.47;;;20.30;64.10;;;;;;6189657;23;20008;-71
2022/06/29 06:33:43;;;;;;;0.60;0.50;;;20.20;64.50;;;;;;6165008;23;20093;-69
2022/06/29 06:36:09;;;;;;;1.02;0.60;;;20.20;64.70;;;;;;6213170;23;20005;-69
2022/06/29 06:38:34;;;;;;;1.42;0.70;;;20.20;64.90;;;;;;6213412;23;20008;-69
2022/06/29 06:43:44;;;;;;;2.70;0.70;;;20.20;65.00;;;;;;6215456;23;20047;-69
2022/06/29 06:46:10;;;;;;;2.67;0.70;;;20.20;65.20;;;;;;6215518;23;20429;-69
2022/06/29 06:48:36;;;;;;;2.65;0.75;;;20.20;65.20;;;;;;6188816;23;20001;-69
2022/06/29 06:51:01;;;;;;;2.42;0.85;;;20.20;65.40;;;;;;6215476;23;20000;-69
2022/06/29 06:53:27;;;;;;;1.63;0.60;;;20.20;65.40;;;;;;6163704;23;20001;-69
2022/06/29 06:55:53;;;;;;;2.40;0.60;;;20.20;65.50;;;;;;6214406;23;20015;-69
2022/06/29 06:58:18;;;;;;;2.20;0.57;;;20.20;65.50;;;;;;6215093;23;20076;-69
2022/06/29 07:00:44;;;;;;;2.50;0.93;;;20.20;65.50;;;;;;6188870;23;20027;-69
2022/06/29 07:03:09;;;;;;;1.60;0.63;;;20.20;65.50;;;;;;6215395;23;19997;-69
2022/06/29 07:05:35;;;;;;;1.67;0.70;;;20.20;65.50;;;;;;6215282;23;20337;-69
2022/06/29 07:08:01;;;;;;;1.60;0.90;;;20.20;65.50;;;;;;6215547;23;20005;-69
2022/06/29 07:10:26;;;;;;;1.45;0.70;;;20.20;65.40;;;;;;6214839;23;20008;-69
2022/06/29 07:12:53;;;;;;;4.05;0.77;;;20.20;65.40;;;;;;6214927;23;20009;-69
2022/06/29 07:15:18;;;;;;;1.70;0.57;;;20.20;65.40;;;;;;6215359;23;20005;-69
2022/06/29 07:17:44;;;;;;;1.38;0.75;;;20.20;65.40;;;;;;6188604;23;20028;-69
2022/06/29 07:20:10;;;;;;;1.20;0.73;;;20.20;65.30;;;;;;6215162;23;20318;-69
2022/06/29 07:22:35;;;;;;;2.58;0.70;;;20.20;65.30;;;;;;6214921;23;20511;-69
2022/06/29 07:25:01;;;;;;;2.00;0.60;;;20.20;65.30;;;;;;6214883;23;19996;-69
2022/06/29 07:27:27;;;;;;;1.25;0.70;;;20.20;65.20;;;;;;6214983;23;20000;-69
2022/06/29 07:29:52;;;;;;;2.35;0.60;;;20.20;65.20;;;;;;6215104;23;20064;-69
2022/06/29 07:32:19;;;;;;;3.22;0.77;;;20.20;65.20;;;;;;6214809;23;20005;-69
2022/06/29 07:34:45;;;;;;;1.58;0.60;;;20.20;65.20;;;;;;6214987;23;20004;-69
2022/06/29 07:37:11;;;;;;;2.42;0.70;;;20.20;65.20;;;;;;6163464;23;20044;-69
2022/06/29 07:39:36;;;;;;;2.25;0.68;;;20.20;65.10;;;;;;6214769;23;19997;-69
2022/06/29 07:42:02;;;;;;;2.78;0.73;;;20.20;65.10;;;;;;6163729;23;20342;-69
2022/06/29 07:44:28;;;;;;;1.48;0.82;;;20.20;65.10;;;;;;6215105;23;20036;-69
2022/06/29 07:46:54;;;;;;;1.77;0.90;;;20.20;65.10;;;;;;6215009;23;20054;-69
2022/06/29 07:49:19;;;;;;;1.27;0.70;;;20.20;65.10;;;;;;6214926;23;20005;-69
2022/06/29 07:51:45;;;;;;;2.75;0.73;;;20.20;65.00;;;;;;6188194;23;20009;-69
2022/06/29 07:54:10;;;;;;;1.40;0.63;;;20.20;65.00;;;;;;6214730;23;20005;-69
2022/06/29 07:56:36;;;;;;;1.92;0.80;;;20.20;65.10;;;;;;6188272;23;20016;-69
2022/06/29 07:59:02;;;;;;;2.28;0.50;;;20.20;65.00;;;;;;6214735;23;20008;-69
2022/06/29 08:01:28;;;;;;;0.60;0.50;;;20.20;65.00;;;;;;6188485;23;20004;-69
2022/06/29 08:03:54;;;;;;;3.58;0.90;;;20.20;65.00;;;;;;6214945;23;20108;-69
2022/06/29 08:06:20;;;;;;;0.88;0.50;;;20.20;65.00;;;;;;6214772;23;20003;-69
2022/06/29 08:08:46;;;;;;;0.80;0.35;;;20.10;64.90;;;;;;6214412;23;20075;-69
2022/06/29 08:11:12;;;;;;;1.40;0.70;;;20.10;64.90;;;;;;6214702;23;20058;-69
2022/06/29 08:13:38;;;;;;;1.23;0.55;;;20.10;64.80;;;;;;6188073;23;20007;-69
2022/06/29 08:16:05;;;;;;;0.93;0.50;;;20.10;64.80;;;;;;6214858;23;20441;-69
2022/06/29 08:18:30;;;;;;;1.73;0.55;;;20.10;64.80;;;;;;6214415;23;20005;-69
2022/06/29 08:20:56;;;;;;;0.98;0.65;;;20.10;65.30;;;;;;6214612;23;20311;-69
2022/06/29 08:23:21;;;;;;;3.28;0.80;;;20.10;64.80;;;;;;6214356;23;19997;-69
2022/06/29 08:25:47;;;;;;;2.92;0.70;;;20.10;64.80;;;;;;6214436;23;20000;-69
2022/06/29 08:28:13;;;;;;;2.00;0.80;;;20.10;64.70;;;;;;6214644;23;20074;-69
2022/06/29 08:30:38;;;;;;;2.05;0.82;;;20.10;64.70;;;;;;6214554;23;20001;-69
2022/06/29 08:33:04;;;;;;;1.05;0.57;;;20.10;64.70;;;;;;6187894;23;20000;-69
2022/06/29 08:35:30;;;;;;;1.35;0.57;;;20.10;64.70;;;;;;6214825;23;20111;-69
2022/06/29 08:37:55;;;;;;;0.70;0.50;;;20.10;64.70;;;;;;6182455;23;20091;-69
2022/06/29 08:40:21;;;;;;;1.10;0.60;;;20.10;64.70;;;;;;6184590;23;20024;-69
2022/06/29 08:42:47;;;;;;;1.55;0.75;;;20.10;64.70;;;;;;6182853;23;20008;-69
2022/06/29 08:45:13;;;;;;;1.98;0.40;;;20.10;64.70;;;;;;6158260;23;20049;-69
2022/06/29 08:47:42;;;;;;;1.80;0.43;;;20.10;64.70;;;;;;6184357;23;20001;-69
2022/06/29 08:50:09;;;;;;;1.05;0.60;;;20.10;64.70;;;;;;6184677;23;20001;-69
2022/06/29 08:52:36;;;;;;;1.33;0.60;;;20.10;64.70;;;;;;6183926;23;20009;-69
2022/06/29 08:55:03;;;;;;;1.85;0.73;;;20.10;64.70;;;;;;6158395;23;20444;-69
2022/06/29 08:57:28;;;;;;;2.90;0.75;;;20.10;64.70;;;;;;6158215;23;20008;-69
2022/06/29 08:59:55;;;;;;;1.20;0.60;;;20.10;64.60;;;;;;6184376;23;20079;-69
2022/06/29 09:02:21;;;;;;;0.98;0.50;;;20.10;64.60;;;;;;6184444;23;20068;-69
2022/06/29 09:04:47;;;;;;;2.22;0.98;;;20.10;64.60;;;;;;6182995;23;20001;-69
2022/06/29 09:07:13;;;;;;;1.33;0.50;;;20.10;64.70;;;;;;6182692;23;20345;-69
2022/06/29 09:09:58;;;;;;;1.98;0.70;;;20.10;64.60;;;;;;6184412;23;20446;-69
2022/06/29 09:12:24;;;;;;;0.88;0.40;;;20.10;64.60;;;;;;6182816;23;20001;-69
2022/06/29 09:14:49;;;;;;;0.93;0.60;;;20.10;64.60;;;;;;6184340;23;20009;-69
2022/06/29 09:17:16;;;;;;;0.77;0.47;;;20.10;64.60;;;;;;6184286;23;20468;-69
2022/06/29 09:19:44;;;;;;;0.65;0.40;;;20.10;64.60;;;;;;6184281;23;20434;-69
2022/06/29 09:22:09;;;;;;;1.67;0.63;;;20.10;64.60;;;;;;6182631;23;20001;-69
2022/06/29 09:24:35;;;;;;;1.08;0.65;;;20.10;64.50;;;;;;6184296;23;20418;-69
2022/06/29 09:27:07;;;;;;;1.20;0.60;;;20.10;64.50;;;;;;6182685;23;20005;-69
2022/06/29 09:29:35;;;;;;;1.17;0.60;;;20.10;65.60;;;;;;6184513;23;20029;-69
2022/06/29 09:32:04;;;;;;;0.93;0.43;;;20.10;64.50;;;;;;6158586;23;20008;-69
2022/06/29 09:34:30;;;;;;;0.40;0.38;;;20.10;64.50;;;;;;6183852;23;20005;-69
2022/06/29 09:36:56;;;;;;;0.73;0.60;;;20.10;64.50;;;;;;6183600;23;20049;-69
2022/06/29 09:39:38;;;;;;;1.20;0.60;;;20.00;64.40;;;;;;6184755;23;20013;-69
2022/06/29 09:42:11;;;;;;;0.98;0.40;;;20.10;64.50;;;;;;6185980;23;19997;-69
2022/06/29 09:44:37;;;;;;;0.80;0.43;;;20.00;64.40;;;;;;6186288;23;20071;-69
2022/06/29 09:47:05;;;;;;;1.15;0.50;;;20.10;64.50;;;;;;6159892;23;19997;-69
2022/06/29 09:49:31;;;;;;;1.10;0.60;;;20.00;64.50;;;;;;6160180;23;20468;-69
2022/06/29 09:51:57;;;;;;;0.95;0.60;;;20.00;64.40;;;;;;6159892;23;20128;-69
2022/06/29 09:54:47;;;;;;;0.63;0.32;;;20.00;64.40;;;;;;6185807;23;20084;-69
2022/06/29 09:57:13;;;;;;;1.08;0.55;;;20.00;64.40;;;;;;6184485;23;20063;-69
2022/06/29 10:02:34;;;;;;;1.13;0.50;;;20.00;64.40;;;;;;6163910;23;20084;-69
2022/06/29 10:05:08;;;;;;;0.88;0.60;;;20.10;64.50;;;;;;6160541;23;20007;-69
2022/06/29 10:07:36;;;;;;;0.68;0.40;;;20.00;64.40;;;;;;6184454;23;20052;-69
2022/06/29 10:10:04;;;;;;;0.88;0.77;;;20.00;64.40;;;;;;6159927;23;20008;-69
2022/06/29 10:16:00;;;;;;;1.10;0.70;;;20.10;64.40;;;;;;6184572;23;20040;-69
2022/06/29 10:18:45;;;;;;;0.70;0.50;;;20.10;64.40;;;;;;6184023;23;20031;-69
2022/06/29 10:21:25;;;;;;;0.93;0.50;;;20.10;64.50;;;;;;6184219;23;20452;-69
2022/06/29 10:23:57;;;;;;;0.93;0.60;;;20.00;64.40;;;;;;6162077;23;20064;-69
2022/06/29 10:26:39;;;;;;;0.75;0.50;;;20.10;64.50;;;;;;6160723;23;20036;-69
2022/06/29 10:29:08;;;;;;;0.73;0.35;;;20.10;64.50;;;;;;6185541;23;20080;-69
2022/06/29 10:34:30;;;;;;;0.60;0.50;;;20.10;64.50;;;;;;6185506;23;20501;-69
2022/06/29 10:37:05;;;;;;;0.75;0.50;;;20.10;64.50;;;;;;6195354;23;20397;-69
2022/06/29 10:39:45;;;;;;;0.30;0.30;;;20.10;64.50;;;;;;6190515;23;20055;-69
2022/06/29 10:45:46;;;;;;;1.10;0.50;;;20.10;64.40;;;;;;6215409;23;20019;-69
2022/06/29 10:48:13;;;;;;;0.80;0.50;;;20.10;64.50;;;;;;6191687;23;20383;-69
2022/06/29 10:50:39;;;;;;;1.70;0.60;;;20.00;64.40;;;;;;6164487;23;20005;-69
2022/06/29 10:53:10;;;;;;;0.50;0.40;;;20.00;64.40;;;;;;6188603;23;20019;-69
2022/06/29 10:55:54;;;;;;;0.93;0.50;;;20.00;64.40;;;;;;6190080;23;20084;-69
2022/06/29 10:58:20;;;;;;;1.15;0.50;;;20.00;64.40;;;;;;6188559;23;20087;-69
2022/06/29 11:00:52;;;;;;;0.88;0.45;;;20.00;64.50;;;;;;6188693;23;20452;-69
2022/06/29 11:03:25;;;;;;;1.02;0.50;;;20.00;64.40;;;;;;6215178;23;19996;-69
2022/06/29 11:12:21;;;;;;;1.40;0.40;;;20.00;64.40;;;;;;6192829;23;20036;-69
2022/06/29 11:17:00;;;;;;;0.93;0.50;;;20.00;64.40;;;;;;6192394;23;20015;-69
2022/06/29 11:19:28;;;;;;;1.02;0.30;;;20.00;64.50;;;;;;6215252;23;20040;-69
2022/06/29 11:22:10;;;;;;;0.73;0.40;;;20.00;64.40;;;;;;6164254;23;20008;-69
2022/06/29 11:24:57;;;;;;;0.50;0.40;;;20.10;64.50;;;;;;6215269;23;20071;-69
2022/06/29 11:27:39;;;;;;;0.68;0.40;;;20.00;64.40;;;;;;6189179;23;20021;-69
2022/06/29 11:30:10;;;;;;;1.48;0.60;;;20.00;64.40;;;;;;6214823;23;20345;-69
2022/06/29 11:32:39;;;;;;;0.63;0.43;;;20.10;64.50;;;;;;6188667;23;20454;-69
2022/06/29 11:35:05;;;;;;;0.68;0.38;;;20.00;64.50;;;;;;6214734;23;19996;-69
2022/06/29 11:37:31;;;;;;;0.63;0.47;;;20.10;64.50;;;;;;6163563;23;20061;-69
2022/06/29 11:39:57;;;;;;;1.17;0.50;;;20.10;64.50;;;;;;6188445;23;20079;-69
2022/06/29 11:45:16;;;;;;;0.43;0.40;;;20.00;64.40;;;;;;6192194;23;20353;-69
2022/06/29 11:47:52;;;;;;;1.15;0.40;;;20.10;64.60;;;;;;6188369;23;20437;-69
2022/06/29 11:50:18;;;;;;;1.52;0.40;;;20.10;64.50;;;;;;6188337;23;20079;-69
2022/06/29 11:52:50;;;;;;;0.32;0.30;;;20.00;64.40;;;;;;6188701;23;20039;-69
2022/06/29 11:55:16;;;;;;;0.93;0.50;;;20.00;64.40;;;;;;6188329;23;20079;-69
2022/06/29 11:57:41;;;;;;;0.60;0.40;;;20.10;64.50;;;;;;6214736;23;20047;-69
2022/06/29 12:00:08;;;;;;;0.90;0.50;;;20.10;64.50;;;;;;6214382;23;19997;-69
2022/06/29 12:02:34;;;;;;;0.60;0.47;;;20.10;64.50;;;;;;6188326;23;20008;-69
2022/06/29 12:05:00;;;;;;;0.93;0.60;;;20.10;64.50;;;;;;6214382;23;20043;-69
2022/06/29 12:07:28;;;;;;;1.10;0.60;;;20.10;64.50;;;;;;6214901;23;20004;-69
2022/06/29 12:09:54;;;;;;;0.43;0.32;;;20.10;64.50;;;;;;6214709;23;20001;-69
2022/06/29 12:12:20;;;;;;;0.82;0.43;;;20.00;64.50;;;;;;6214716;23;20329;-69
2022/06/29 12:14:45;;;;;;;0.85;0.50;;;20.10;64.60;;;;;;6214549;23;20005;-69
2022/06/29 12:17:13;;;;;;;1.65;0.50;;;20.10;64.50;;;;;;6188100;23;20001;-69
2022/06/29 12:19:38;;;;;;;1.08;0.50;;;20.10;64.60;;;;;;6214451;23;20000;-69
2022/06/29 12:22:04;;;;;;;0.80;0.40;;;20.00;64.60;;;;;;6214676;23;20000;-69
2022/06/29 12:24:30;;;;;;;1.05;0.60;;;20.00;64.50;;;;;;6214668;23;19997;-69
2022/06/29 12:26:56;;;;;;;0.90;0.50;;;20.00;64.50;;;;;;6214522;23;20051;-69
2022/06/29 12:29:21;;;;;;;1.17;0.40;;;20.00;64.60;;;;;;6163166;23;20392;-69
2022/06/29 12:31:47;;;;;;;0.63;0.40;;;20.10;64.60;;;;;;6188255;23;20009;-69
2022/06/29 12:34:13;;;;;;;0.68;0.52;;;20.00;64.50;;;;;;6188153;23;20011;-69
2022/06/29 12:36:39;;;;;;;1.38;0.50;;;20.00;64.50;;;;;;6163465;23;20079;-69
2022/06/29 12:39:06;;;;;;;1.42;0.50;;;20.10;64.60;;;;;;6187753;23;20347;-69
2022/06/29 12:41:31;;;;;;;1.05;0.52;;;20.00;64.50;;;;;;6188382;23;19996;-69
2022/06/29 12:43:59;;;;;;;0.82;0.35;;;20.00;64.50;;;;;;6187636;23;19997;-69
2022/06/29 12:46:27;;;;;;;1.20;0.40;;;20.10;64.60;;;;;;6188541;23;20027;-69
2022/06/29 12:48:53;;;;;;;0.45;0.45;;;20.10;64.60;;;;;;6214730;23;20015;-69
2022/06/29 12:51:19;;;;;;;0.77;0.40;;;20.00;64.50;;;;;;6214350;23;20005;-69
2022/06/29 12:53:44;;;;;;;1.33;0.52;;;20.00;64.50;;;;;;6214513;23;20433;-69
2022/06/29 12:56:10;;;;;;;0.93;0.32;;;20.00;64.50;;;;;;6214372;23;20000;-69
2022/06/29 12:58:36;;;;;;;0.57;0.30;;;20.00;64.60;;;;;;6214450;23;20019;-69
2022/06/29 13:01:01;;;;;;;0.40;0.32;;;20.00;64.50;;;;;;6214418;23;20440;-69
2022/06/29 13:03:27;;;;;;;0.98;0.40;;;20.10;65.60;;;;;;6188110;23;20000;-69
2022/06/29 13:05:52;;;;;;;1.45;0.50;;;20.10;64.60;;;;;;6187771;23;20031;-69
2022/06/29 13:08:18;;;;;;;1.35;0.50;;;20.00;64.60;;;;;;6214382;23;20058;-69
2022/06/29 13:10:44;;;;;;;0.50;0.45;;;20.00;64.60;;;;;;6188352;23;20326;-69
2022/06/29 13:13:10;;;;;;;0.65;0.32;;;20.00;64.70;;;;;;6189609;23;20074;-69
2022/06/29 13:15:35;;;;;;;0.85;0.40;;;20.00;64.60;;;;;;6216370;23;20151;-69